Time;durP1;ratioP1;P1;durP2;ratioP2;P2;SDS_P1;SDS_P2;PMS_P1;PMS_P2;Temp;Humidity;BMP_temperature;BMP_pressure;BME280_temperature;BME280_humidity;BME280_pressure;Samples;Min_cycle;Max_cycle;Signal;HPM_P1;HPM_P2
2022/04/12 00:01:00;;;;;;;1.00;0.30;;;;;;;3.35;47.95;101606.38;4993907;28;20051;-74
2022/04/12 00:03:26;;;;;;;2.65;0.57;;;;;;;3.32;47.79;101603.78;4994643;28;20065;-75
2022/04/12 00:05:52;;;;;;;2.42;0.50;;;;;;;3.26;47.96;101596.00;4991881;28;20068;-75
2022/04/12 00:08:17;;;;;;;3.63;0.60;;;;;;;3.17;47.93;101600.28;4986697;28;20049;-75
2022/04/12 00:10:43;;;;;;;2.40;0.40;;;;;;;3.17;47.64;101589.94;4994738;28;20088;-76
2022/04/12 00:13:08;;;;;;;5.70;1.08;;;;;;;3.23;47.59;101588.25;4992362;28;20072;-72
2022/04/12 00:15:34;;;;;;;3.13;0.57;;;;;;;3.17;47.80;101587.34;4989759;28;20044;-74
2022/04/12 00:20:44;;;;;;;1.73;0.50;;;;;;;3.07;47.69;101579.56;4992707;28;20132;-74
2022/04/12 00:23:14;;;;;;;0.75;0.30;;;;;;;3.02;47.86;101583.88;4988023;28;20058;-75
2022/04/12 00:25:43;;;;;;;3.60;0.82;;;;;;;3.11;47.41;101578.72;4989634;28;20096;-75
2022/04/12 00:28:08;;;;;;;2.00;0.50;;;;;;;3.06;47.36;101576.13;4978196;28;20069;-75
2022/04/12 00:30:34;;;;;;;5.70;0.45;;;;;;;3.11;47.08;101582.19;4993471;28;20825;-74
2022/04/12 00:33:02;;;;;;;2.25;0.75;;;;;;;3.23;46.64;101589.09;4984867;28;20039;-73
2022/04/12 00:35:27;;;;;;;2.13;0.30;;;;;;;3.15;46.55;101588.22;4988225;28;20513;-75
2022/04/12 00:37:54;;;;;;;3.00;0.73;;;;;;;3.23;46.32;101577.91;4963669;28;20057;-73
2022/04/12 00:40:24;;;;;;;4.47;0.88;;;;;;;3.41;45.88;101577.97;4986355;28;20038;-74
2022/04/12 00:42:49;;;;;;;1.80;0.43;;;;;;;3.57;45.25;101571.09;4979109;28;20057;-71
2022/04/12 00:45:15;;;;;;;1.52;0.50;;;;;;;3.28;45.86;101565.84;4993983;28;20034;-71
2022/04/12 00:47:40;;;;;;;3.85;0.50;;;;;;;3.14;45.92;101553.78;4986461;28;20042;-70
2022/04/12 00:50:08;;;;;;;6.97;0.73;;;;;;;3.24;46.10;101548.63;4986727;28;20038;-70
2022/04/12 00:52:41;;;;;;;1.67;0.68;;;;;;;3.29;45.96;101541.75;4989041;28;20124;-71
2022/04/12 00:55:07;;;;;;;3.72;0.50;;;;;;;3.23;45.88;101536.56;4986870;28;20109;-70
2022/04/12 00:57:33;;;;;;;1.35;0.50;;;;;;;3.43;45.42;101531.47;4991197;28;20143;-69
2022/04/12 01:00:04;;;;;;;2.20;0.85;;;;;;;3.18;45.74;101524.50;4985174;28;20503;-69
2022/04/12 01:02:31;;;;;;;1.15;0.82;;;;;;;3.18;45.86;101534.84;4984463;28;20100;-70
2022/04/12 01:04:59;;;;;;;1.90;0.63;;;;;;;3.26;45.82;101539.16;4989013;28;21143;-69
2022/04/12 01:07:24;;;;;;;4.45;0.63;;;;;;;3.27;45.46;101533.09;4990641;28;20487;-71
2022/04/12 01:09:52;;;;;;;2.47;0.63;;;;;;;3.26;45.51;101528.81;4997381;28;20121;-72
2022/04/12 01:12:21;;;;;;;3.42;0.68;;;;;;;3.27;45.56;101538.28;4990470;28;20068;-72
2022/04/12 01:14:46;;;;;;;4.40;0.73;;;;;;;3.33;45.38;101538.31;4997871;28;20044;-72
2022/04/12 01:17:12;;;;;;;1.80;0.47;;;;;;;3.31;45.35;101540.03;4993846;28;20038;-73
2022/04/12 01:19:37;;;;;;;2.17;0.65;;;;;;;3.19;45.51;101539.13;4989968;28;20570;-73
2022/04/12 01:22:05;;;;;;;1.15;0.60;;;;;;;3.28;45.50;101532.25;5007467;28;20042;-78
2022/04/12 01:24:32;;;;;;;2.38;0.60;;;;;;;3.30;45.16;101528.00;5002233;28;20041;-79
2022/04/12 01:26:58;;;;;;;2.30;0.88;;;;;;;3.43;45.00;101545.22;5001845;28;20161;-79
2022/04/12 01:29:25;;;;;;;1.30;0.50;;;;;;;3.18;45.35;101529.69;5002626;28;20046;-78
2022/04/12 01:31:51;;;;;;;5.20;1.23;;;;;;;3.41;44.93;101531.44;4990927;28;20042;-75
2022/04/12 01:34:16;;;;;;;2.20;0.88;;;;;;;3.44;44.88;101526.28;4977002;28;20455;-74
2022/04/12 01:36:42;;;;;;;5.22;1.05;;;;;;;3.48;45.04;101525.41;4991700;28;20046;-76
2022/04/12 01:39:07;;;;;;;1.75;0.90;;;;;;;3.48;44.59;101522.81;4985118;28;20046;-70
2022/04/12 01:41:33;;;;;;;3.08;0.80;;;;;;;3.46;44.55;101523.69;4988815;28;20038;-70
2022/04/12 01:44:01;;;;;;;2.92;1.13;;;;;;;3.42;44.50;101522.81;4982588;28;20690;-70
2022/04/12 01:46:27;;;;;;;1.80;1.13;;;;;;;3.53;44.62;101530.59;4992350;28;21072;-71
2022/04/12 01:48:52;;;;;;;6.32;1.20;;;;;;;3.54;44.59;101525.41;4982946;28;20046;-71
2022/04/12 01:51:18;;;;;;;2.65;0.73;;;;;;;3.59;43.95;101526.28;4987343;28;20041;-72
2022/04/12 01:53:43;;;;;;;3.40;1.08;;;;;;;3.56;44.36;101521.13;4976024;28;20047;-71
2022/04/12 01:56:11;;;;;;;4.55;0.88;;;;;;;3.50;44.49;101515.94;4985755;28;20046;-71
2022/04/12 01:58:38;;;;;;;2.88;1.27;;;;;;;3.48;44.41;101512.50;4989852;28;20574;-71
2022/04/12 02:01:04;;;;;;;2.67;0.98;;;;;;;3.55;44.33;101516.78;5001191;28;20464;-70
2022/04/12 02:03:30;;;;;;;1.60;0.95;;;;;;;3.76;43.91;101525.38;4985036;28;20046;-71
2022/04/12 02:05:56;;;;;;;3.25;1.20;;;;;;;3.62;44.29;101514.22;4983272;28;20522;-72
2022/04/12 02:08:22;;;;;;;3.85;0.98;;;;;;;3.67;44.14;101522.81;4984947;28;20031;-68
2022/04/12 02:10:48;;;;;;;3.72;1.00;;;;;;;3.71;44.08;101519.38;4985202;28;20042;-67
2022/04/12 02:13:16;;;;;;;3.60;1.20;;;;;;;3.77;43.88;101504.72;4984926;28;20034;-67
2022/04/12 02:15:42;;;;;;;3.45;1.33;;;;;;;3.70;44.00;101497.81;4984056;28;20487;-67
2022/04/12 02:18:07;;;;;;;2.45;1.30;;;;;;;3.53;44.46;101515.94;5000328;28;20057;-67
2022/04/12 02:20:33;;;;;;;3.25;1.65;;;;;;;3.75;43.71;101503.00;4974636;28;20115;-66
2022/04/12 02:22:58;;;;;;;3.85;1.10;;;;;;;3.81;43.68;101497.81;4987927;28;20047;-79
2022/04/12 02:25:23;;;;;;;2.80;1.40;;;;;;;3.67;44.14;101503.03;4979608;28;20030;-80
2022/04/12 02:27:49;;;;;;;3.08;1.17;;;;;;;3.65;44.36;101496.09;4995643;28;20073;-78
2022/04/12 02:30:15;;;;;;;3.05;1.00;;;;;;;3.77;44.00;101486.59;4983204;28;20041;-81
2022/04/12 02:32:40;;;;;;;7.15;1.58;;;;;;;3.66;44.53;101485.75;5006508;28;20037;-79
2022/04/12 02:35:06;;;;;;;3.88;1.40;;;;;;;3.62;44.46;101480.59;4999507;28;20126;-80
2022/04/12 02:37:32;;;;;;;6.90;1.88;;;;;;;3.44;44.91;101484.91;4999965;28;20514;-79
2022/04/12 02:39:57;;;;;;;2.58;1.05;;;;;;;3.51;44.80;101486.63;4986409;28;20084;-80
2022/04/12 02:42:23;;;;;;;3.67;0.93;;;;;;;3.36;45.19;101486.66;4991941;28;20086;-80
2022/04/12 02:44:49;;;;;;;5.60;1.40;;;;;;;3.53;44.86;101479.75;5004550;28;20395;-79
2022/04/12 02:47:14;;;;;;;4.50;1.38;;;;;;;3.45;45.08;101470.25;5010362;28;20653;-79
2022/04/12 02:49:39;;;;;;;3.40;1.10;;;;;;;3.66;44.75;101479.75;5005294;28;20777;-79
2022/04/12 02:52:05;;;;;;;3.72;1.85;;;;;;;3.49;45.03;101480.63;5004214;28;20026;-78
2022/04/12 02:54:31;;;;;;;6.03;2.15;;;;;;;3.45;45.04;101481.50;4984002;28;20045;-70
2022/04/12 02:56:57;;;;;;;2.97;1.67;;;;;;;3.41;45.44;101469.44;4988538;28;22662;-71
2022/04/12 02:59:25;;;;;;;4.65;1.55;;;;;;;3.43;45.15;101467.72;4990540;28;20034;-73
2022/04/12 03:01:50;;;;;;;2.90;1.38;;;;;;;3.22;45.76;101468.53;4987500;28;20034;-70
2022/04/12 03:04:16;;;;;;;2.45;1.55;;;;;;;3.32;45.72;101472.03;4978044;28;20065;-70
2022/04/12 03:06:46;;;;;;;4.65;1.73;;;;;;;3.40;45.52;101467.69;4988165;28;20038;-70
2022/04/12 03:09:14;;;;;;;2.85;1.38;;;;;;;3.29;45.63;101459.09;4985543;28;20135;-70
2022/04/12 03:11:40;;;;;;;3.92;2.03;;;;;;;3.37;45.49;101457.38;5005897;28;20041;-69
2022/04/12 03:14:06;;;;;;;4.90;1.45;;;;;;;3.16;46.08;101463.38;4990930;28;20037;-70
2022/04/12 03:16:32;;;;;;;6.30;1.80;;;;;;;3.25;45.96;101452.16;4990773;28;20042;-72
2022/04/12 03:18:57;;;;;;;5.72;1.95;;;;;;;3.18;46.00;101465.09;4952858;28;20042;-73
2022/04/12 03:21:23;;;;;;;2.58;1.80;;;;;;;3.06;46.30;101459.91;4989868;28;20043;-73
2022/04/12 03:23:49;;;;;;;4.70;1.83;;;;;;;3.09;46.28;101467.69;4984822;28;20041;-72
2022/04/12 03:26:14;;;;;;;3.13;1.73;;;;;;;3.09;46.53;101462.50;4989798;28;20156;-72
2022/04/12 03:28:39;;;;;;;5.30;2.05;;;;;;;3.21;46.19;101451.31;4986852;28;20780;-72
2022/04/12 03:31:05;;;;;;;4.10;1.70;;;;;;;3.11;46.32;101455.63;4988123;28;20575;-73
2022/04/12 03:33:30;;;;;;;3.08;2.03;;;;;;;3.16;46.29;101459.06;4990719;28;20088;-72
2022/04/12 03:35:56;;;;;;;4.30;2.05;;;;;;;3.03;46.49;101459.91;4987765;28;20567;-73
2022/04/12 03:38:21;;;;;;;3.80;1.80;;;;;;;3.12;46.47;101457.34;4990555;28;20048;-73
2022/04/12 03:40:47;;;;;;;3.80;2.17;;;;;;;3.09;46.47;101446.13;4991133;28;20049;-72
2022/04/12 03:43:13;;;;;;;6.32;2.05;;;;;;;2.93;46.65;101442.69;4987710;28;20790;-73
2022/04/12 03:45:40;;;;;;;7.25;2.78;;;;;;;2.82;47.02;101442.66;4990773;28;20034;-70
2022/04/12 03:48:06;;;;;;;3.88;1.65;;;;;;;2.93;46.98;101429.78;4978748;28;20045;-69
2022/04/12 03:50:34;;;;;;;6.72;2.45;;;;;;;3.04;46.48;101438.38;5003464;28;20046;-69
2022/04/12 03:53:01;;;;;;;2.33;1.85;;;;;;;3.10;46.48;101451.31;4984535;28;20030;-69
2022/04/12 03:55:35;;;;;;;7.78;1.77;;;;;;;2.93;46.94;101460.75;4987258;28;20650;-69
2022/04/12 03:58:05;;;;;;;3.15;2.17;;;;;;;2.96;46.56;101456.47;4983795;28;20104;-70
2022/04/12 04:00:32;;;;;;;6.70;2.25;;;;;;;3.01;46.58;101453.88;4985955;28;20034;-70
2022/04/12 04:02:57;;;;;;;4.25;2.15;;;;;;;3.10;46.53;101459.06;4989127;28;20151;-70
2022/04/12 04:05:24;;;;;;;6.32;2.20;;;;;;;3.23;46.17;101459.06;4991436;28;20034;-69
2022/04/12 04:07:49;;;;;;;4.85;2.40;;;;;;;3.00;46.61;101462.47;4985391;28;20046;-69
2022/04/12 04:10:15;;;;;;;2.58;1.85;;;;;;;3.08;46.70;101463.34;4988548;28;20065;-68
2022/04/12 04:12:40;;;;;;;4.63;2.72;;;;;;;2.95;47.03;101461.63;4985275;28;20664;-69
2022/04/12 04:15:11;;;;;;;4.50;2.72;;;;;;;3.11;46.60;101454.75;4987092;28;20034;-69
2022/04/12 04:17:47;;;;;;;4.10;1.73;;;;;;;3.11;46.11;101459.91;4986636;28;20894;-69
2022/04/12 04:20:17;;;;;;;7.10;3.25;;;;;;;3.18;46.25;101451.31;4986428;28;20034;-69
2022/04/12 04:22:43;;;;;;;5.97;2.67;;;;;;;3.12;46.32;101444.41;4987895;28;20104;-69
2022/04/12 04:25:13;;;;;;;4.15;2.95;;;;;;;3.24;45.92;101446.13;5002797;28;20088;-69
2022/04/12 04:27:39;;;;;;;7.03;3.17;;;;;;;3.26;46.03;101441.84;4986026;28;20054;-71
2022/04/12 04:30:09;;;;;;;6.50;2.45;;;;;;;3.33;45.94;101453.06;4985993;28;20041;-68
2022/04/12 04:32:38;;;;;;;4.93;1.98;;;;;;;3.35;45.85;101449.59;4984962;28;20143;-70
2022/04/12 04:35:07;;;;;;;8.63;3.63;;;;;;;3.37;45.89;101457.38;4984526;28;20034;-69
2022/04/12 04:37:40;;;;;;;4.22;2.35;;;;;;;3.22;46.23;101452.16;4988600;28;20374;-74
2022/04/12 04:40:06;;;;;;;4.40;1.83;;;;;;;3.16;46.37;101453.03;4978128;28;20037;-75
2022/04/12 04:42:33;;;;;;;6.28;2.83;;;;;;;3.04;47.10;101453.03;4993864;28;20046;-75
2022/04/12 04:44:58;;;;;;;5.95;2.65;;;;;;;3.29;46.36;101448.75;4994216;28;20037;-74
2022/04/12 04:47:24;;;;;;;5.28;2.50;;;;;;;3.39;45.70;101451.34;4991387;28;20622;-74
2022/04/12 04:49:50;;;;;;;5.93;2.95;;;;;;;3.26;46.11;101449.59;4991143;28;20045;-72
2022/04/12 04:52:16;;;;;;;5.65;2.60;;;;;;;3.24;46.25;101455.63;4987114;28;20076;-72
2022/04/12 04:54:41;;;;;;;6.57;2.95;;;;;;;3.21;46.30;101447.88;4986760;28;20432;-73
2022/04/12 04:57:07;;;;;;;5.25;3.22;;;;;;;3.24;46.03;101455.63;4983146;28;20137;-71
2022/04/12 04:59:32;;;;;;;7.88;2.80;;;;;;;3.26;46.01;101449.59;4990377;28;20045;-73
2022/04/12 05:01:58;;;;;;;18.02;4.78;;;;;;;3.18;46.00;101452.19;4986218;28;20033;-72
2022/04/12 05:04:25;;;;;;;6.55;3.95;;;;;;;3.34;46.00;101457.38;4992666;28;20041;-72
2022/04/12 05:06:51;;;;;;;6.38;3.20;;;;;;;3.32;45.77;101461.69;4988276;28;20053;-72
2022/04/12 05:09:16;;;;;;;8.20;2.80;;;;;;;3.29;45.99;101459.09;4980517;28;20042;-72
2022/04/12 05:11:42;;;;;;;6.85;3.15;;;;;;;3.18;45.99;101462.50;4986760;28;20149;-74
2022/04/12 05:14:07;;;;;;;5.75;2.85;;;;;;;3.39;45.85;101453.91;5000855;28;20041;-73
2022/04/12 05:16:33;;;;;;;6.70;2.78;;;;;;;3.44;45.59;101451.31;4988795;28;20495;-74
2022/04/12 05:18:58;;;;;;;6.22;2.28;;;;;;;3.47;45.50;101453.94;4985336;28;20042;-74
2022/04/12 05:21:24;;;;;;;5.25;2.65;;;;;;;3.59;45.30;101453.03;5011332;28;20100;-74
2022/04/12 05:23:49;;;;;;;6.13;3.30;;;;;;;3.44;45.59;101450.47;4993164;28;20056;-75
2022/04/12 05:26:15;;;;;;;5.18;2.80;;;;;;;3.62;45.26;101453.03;4996386;28;20030;-74
2022/04/12 05:28:42;;;;;;;9.57;2.83;;;;;;;3.41;45.63;101459.09;4993645;28;20046;-76
2022/04/12 05:31:09;;;;;;;4.00;2.55;;;;;;;3.67;45.29;101450.44;4992619;28;20080;-74
2022/04/12 05:33:35;;;;;;;4.18;2.63;;;;;;;3.35;45.95;101443.59;4989917;28;20184;-77
2022/04/12 05:36:01;;;;;;;4.65;2.75;;;;;;;3.55;45.63;101449.59;4986733;28;20038;-72
2022/04/12 05:38:29;;;;;;;11.18;3.90;;;;;;;3.55;45.66;101449.59;4989806;28;20044;-72
2022/04/12 05:40:55;;;;;;;6.65;2.63;;;;;;;3.59;45.57;101455.63;4988761;28;20033;-72
2022/04/12 05:43:20;;;;;;;7.35;3.00;;;;;;;3.53;45.47;101456.47;4990436;28;20045;-72
2022/04/12 05:45:48;;;;;;;5.38;2.88;;;;;;;3.78;45.29;101456.44;4988272;28;20033;-72
2022/04/12 05:48:13;;;;;;;9.55;2.72;;;;;;;3.68;45.56;101472.84;4968570;28;20141;-73
2022/04/12 05:50:39;;;;;;;5.30;2.65;;;;;;;4.03;45.10;101475.34;4987946;28;20057;-72
2022/04/12 05:53:04;;;;;;;6.90;2.88;;;;;;;4.05;44.78;101472.75;5004303;28;20092;-72
2022/04/12 05:55:30;;;;;;;6.80;2.55;;;;;;;4.10;44.39;101483.97;4988722;28;20605;-72
2022/04/12 05:57:59;;;;;;;3.78;2.20;;;;;;;4.24;44.15;101484.75;4988435;28;20136;-72
2022/04/12 06:00:27;;;;;;;4.55;2.63;;;;;;;4.04;44.75;101478.78;4996791;28;20033;-73
2022/04/12 06:02:56;;;;;;;5.72;3.20;;;;;;;4.33;44.21;101478.69;4987369;28;20100;-72
2022/04/12 06:05:24;;;;;;;8.27;2.83;;;;;;;4.41;44.08;101493.31;4989228;28;20029;-72
2022/04/12 06:07:50;;;;;;;4.63;2.55;;;;;;;4.44;43.54;101492.44;4977587;28;20758;-72
2022/04/12 06:10:18;;;;;;;3.95;2.85;;;;;;;4.19;44.00;101494.28;4977855;28;20030;-72
2022/04/12 06:12:45;;;;;;;6.22;3.42;;;;;;;4.19;44.11;101491.69;4992067;28;20038;-71
2022/04/12 06:15:11;;;;;;;5.00;2.92;;;;;;;4.51;43.35;101494.13;5006898;28;20038;-71
2022/04/12 06:17:38;;;;;;;9.13;2.40;;;;;;;5.00;42.36;101495.63;4989954;28;20703;-71
2022/04/12 06:20:08;;;;;;;5.53;3.15;;;;;;;5.15;41.70;101486.88;4990288;28;20716;-72
2022/04/12 06:22:34;;;;;;;10.20;2.83;;;;;;;5.30;41.67;101491.06;4993956;28;20038;-72
2022/04/12 06:25:00;;;;;;;4.43;1.95;;;;;;;5.91;39.69;101487.91;4977257;28;20065;-72
2022/04/12 06:27:39;;;;;;;4.82;2.20;;;;;;;6.23;39.12;101484.09;4992613;28;20061;-74
2022/04/12 06:30:07;;;;;;;5.45;2.30;;;;;;;7.01;37.31;101490.00;5008041;28;20039;-72
2022/04/12 06:32:34;;;;;;;6.97;2.33;;;;;;;7.38;36.33;101489.38;4997001;28;20069;-70
2022/04/12 06:35:02;;;;;;;5.78;3.00;;;;;;;8.33;35.05;101490.25;4991105;28;20380;-71
2022/04/12 06:37:28;;;;;;;5.05;2.67;;;;;;;9.29;33.29;101484.59;4979559;28;20049;-72
2022/04/12 06:39:57;;;;;;;4.88;2.63;;;;;;;9.30;32.97;101475.91;4999249;28;20026;-75
2022/04/12 06:42:25;;;;;;;6.85;2.95;;;;;;;9.84;31.97;101468.47;4993481;28;20149;-73
2022/04/12 06:44:54;;;;;;;6.47;3.17;;;;;;;10.10;31.47;101460.75;4981359;28;20052;-73
2022/04/12 06:47:19;;;;;;;5.78;2.88;;;;;;;10.81;30.38;101462.09;4992362;28;20046;-69
2022/04/12 06:49:46;;;;;;;4.30;2.28;;;;;;;11.84;28.51;101463.94;4991598;28;20328;-70
2022/04/12 06:52:13;;;;;;;5.20;2.90;;;;;;;11.07;29.44;101468.28;4979660;28;20034;-73
2022/04/12 06:54:41;;;;;;;9.85;3.38;;;;;;;11.19;29.38;101467.00;4996124;28;20042;-70
2022/04/12 06:57:07;;;;;;;6.53;2.88;;;;;;;11.97;28.55;101466.94;4965607;28;20044;-72
2022/04/12 06:59:34;;;;;;;8.43;2.45;;;;;;;12.28;27.81;101464.03;4984615;28;20117;-71
2022/04/12 07:02:02;;;;;;;5.20;2.67;;;;;;;12.87;27.43;101473.16;4968765;28;20034;-72
2022/04/12 07:04:29;;;;;;;3.65;2.17;;;;;;;11.37;28.77;101460.28;4992540;28;20033;-72
2022/04/12 07:06:56;;;;;;;4.38;2.70;;;;;;;9.64;31.31;101454.16;4994487;28;20038;-74
2022/04/12 07:09:23;;;;;;;5.63;2.83;;;;;;;8.75;33.36;101454.59;4982777;28;20041;-72
2022/04/12 07:11:51;;;;;;;6.35;2.35;;;;;;;8.81;33.25;101455.34;4975400;28;20037;-74
2022/04/12 07:14:17;;;;;;;6.63;2.67;;;;;;;9.54;32.08;101443.13;4989322;28;20407;-72
2022/04/12 07:16:42;;;;;;;5.35;2.08;;;;;;;9.91;31.32;101442.13;4991558;28;20044;-72
2022/04/12 07:19:08;;;;;;;4.93;2.08;;;;;;;10.58;30.85;101439.28;4993803;28;20112;-73
2022/04/12 07:21:34;;;;;;;3.85;2.20;;;;;;;10.30;30.50;101438.41;4993972;28;20038;-72
2022/04/12 07:24:00;;;;;;;4.38;2.30;;;;;;;9.75;31.76;101446.03;4989486;28;20045;-74
2022/04/12 07:26:26;;;;;;;4.63;2.50;;;;;;;9.62;31.99;101429.84;4992717;28;20140;-73
2022/04/12 07:28:54;;;;;;;3.30;2.13;;;;;;;9.60;32.34;101435.09;4978283;28;20449;-74
2022/04/12 07:31:20;;;;;;;5.88;2.40;;;;;;;9.28;31.90;101427.28;4989887;28;20041;-72
2022/04/12 07:33:45;;;;;;;6.80;2.33;;;;;;;9.08;32.70;101439.06;4992078;28;20048;-72
2022/04/12 07:36:11;;;;;;;4.43;2.08;;;;;;;8.66;32.72;101435.69;4989710;28;20034;-73
2022/04/12 07:38:36;;;;;;;4.43;1.95;;;;;;;8.93;32.63;101445.50;4988234;28;20064;-72
2022/04/12 07:41:04;;;;;;;4.28;2.03;;;;;;;9.37;32.46;101445.31;4987967;28;20041;-72
2022/04/12 07:43:30;;;;;;;3.90;1.45;;;;;;;9.50;31.80;101443.22;4990171;28;20321;-72
2022/04/12 07:45:56;;;;;;;3.63;1.55;;;;;;;10.02;31.13;101434.00;5001857;28;20034;-72
2022/04/12 07:48:24;;;;;;;4.13;2.17;;;;;;;10.66;30.72;101423.38;4995377;28;20139;-72
2022/04/12 07:50:49;;;;;;;7.13;2.67;;;;;;;10.82;30.41;101427.22;4992001;28;20041;-73
2022/04/12 07:53:15;;;;;;;5.78;2.78;;;;;;;11.94;28.79;101426.91;4971826;28;20054;-73
2022/04/12 07:55:40;;;;;;;5.25;2.05;;;;;;;11.42;28.93;101424.38;4988229;28;20042;-72
2022/04/12 07:58:06;;;;;;;3.97;1.92;;;;;;;11.67;28.38;101432.22;4987704;28;20149;-73
2022/04/12 08:00:34;;;;;;;3.17;1.63;;;;;;;11.57;28.43;101425.56;4991956;28;20183;-72
2022/04/12 08:03:00;;;;;;;2.90;1.75;;;;;;;11.31;29.20;101421.25;5002694;28;20129;-72
2022/04/12 08:05:28;;;;;;;5.15;1.85;;;;;;;10.46;30.16;101417.88;4990774;28;20034;-72
2022/04/12 08:07:53;;;;;;;2.72;1.85;;;;;;;9.39;31.82;101410.44;4975490;28;20124;-73
2022/04/12 08:10:19;;;;;;;3.30;2.17;;;;;;;8.96;33.08;101424.59;4993870;28;20045;-72
2022/04/12 08:12:46;;;;;;;4.35;2.15;;;;;;;8.33;34.04;101430.34;4992349;28;20061;-72
2022/04/12 08:15:15;;;;;;;6.20;1.90;;;;;;;8.04;34.46;101421.41;4989376;28;20029;-72
2022/04/12 08:17:41;;;;;;;4.15;2.13;;;;;;;8.73;33.54;101421.66;4993304;28;20048;-72
2022/04/12 08:20:09;;;;;;;2.20;1.55;;;;;;;8.80;33.61;101415.41;4987932;28;20030;-72
2022/04/12 08:22:37;;;;;;;5.40;2.30;;;;;;;8.94;33.87;101410.72;4957564;28;20464;-74
2022/04/12 08:25:03;;;;;;;2.70;2.00;;;;;;;9.00;34.16;101406.25;4993989;28;20697;-73
2022/04/12 08:27:29;;;;;;;3.83;2.08;;;;;;;8.76;34.68;101411.16;5011721;28;20274;-73
2022/04/12 08:29:55;;;;;;;7.45;2.42;;;;;;;8.83;33.79;101415.34;4994068;28;20044;-72
2022/04/12 08:32:21;;;;;;;3.53;2.10;;;;;;;9.44;33.02;101419.91;4995978;28;20045;-72
2022/04/12 08:34:47;;;;;;;3.92;2.63;;;;;;;10.56;31.68;101425.38;5010078;28;20244;-72
2022/04/12 08:37:13;;;;;;;4.32;2.40;;;;;;;11.75;30.08;101430.16;5008773;28;20032;-73
2022/04/12 08:39:41;;;;;;;14.93;4.90;;;;;;;12.63;28.75;101434.75;5016997;28;20056;-72
2022/04/12 08:42:07;;;;;;;3.67;1.90;;;;;;;14.46;26.31;101432.13;5012655;28;20025;-72
2022/04/12 08:44:36;;;;;;;4.75;1.73;;;;;;;14.58;25.05;101435.94;5012393;28;20064;-72
2022/04/12 08:47:04;;;;;;;5.20;1.85;;;;;;;15.16;24.99;101428.66;4997000;28;20045;-72
2022/04/12 08:49:30;;;;;;;4.18;1.90;;;;;;;15.28;23.95;101418.44;5012721;28;20029;-72
2022/04/12 08:51:56;;;;;;;4.07;1.50;;;;;;;14.09;25.37;101410.16;5007362;28;20041;-74
2022/04/12 08:54:24;;;;;;;6.90;2.20;;;;;;;13.21;26.36;101411.38;4989244;28;20406;-73
2022/04/12 08:56:52;;;;;;;5.57;2.15;;;;;;;13.21;26.68;101397.41;4988934;28;20757;-72
2022/04/12 08:59:19;;;;;;;5.40;1.88;;;;;;;14.06;25.89;101394.53;5008068;28;20038;-73
2022/04/12 09:01:46;;;;;;;4.80;2.33;;;;;;;14.07;25.83;101397.06;4989401;28;20092;-72
2022/04/12 09:04:12;;;;;;;4.70;1.73;;;;;;;11.97;28.27;101395.34;4969817;28;20050;-74
2022/04/12 09:06:52;;;;;;;4.18;3.03;;;;;;;12.75;27.37;101399.34;4979676;28;20045;-72
2022/04/12 09:09:23;;;;;;;6.90;2.30;;;;;;;11.75;28.73;101400.50;4988908;28;20042;-72
2022/04/12 09:12:02;;;;;;;6.70;2.60;;;;;;;11.37;29.87;101387.00;4992964;28;20038;-73
2022/04/12 09:14:45;;;;;;;4.15;1.95;;;;;;;11.43;29.66;101379.81;4959736;28;20046;-73
2022/04/12 09:17:18;;;;;;;4.05;2.60;;;;;;;10.96;30.32;101373.59;4990522;28;20128;-73
2022/04/12 09:19:51;;;;;;;4.40;2.28;;;;;;;11.19;30.43;101370.19;4990893;28;20039;-71
2022/04/12 09:22:23;;;;;;;7.15;2.30;;;;;;;11.63;29.16;101362.53;4979174;28;20038;-72
2022/04/12 09:24:50;;;;;;;3.58;2.05;;;;;;;11.28;30.38;101356.78;4985805;28;20077;-73
2022/04/12 09:27:19;;;;;;;7.35;3.03;;;;;;;11.59;30.22;101355.69;4989199;28;20359;-73
2022/04/12 09:29:50;;;;;;;3.65;1.77;;;;;;;11.97;29.51;101356.91;5002780;28;20037;-72
2022/04/12 09:32:21;;;;;;;5.30;2.10;;;;;;;12.67;28.65;101348.03;4987126;28;20558;-72
2022/04/12 09:34:47;;;;;;;6.95;2.50;;;;;;;12.85;28.95;101348.22;4985976;28;20789;-72
2022/04/12 09:37:24;;;;;;;4.45;2.17;;;;;;;12.34;28.10;101336.28;4988079;28;20132;-71
2022/04/12 09:39:59;;;;;;;3.75;2.00;;;;;;;12.25;28.36;101338.34;5001488;28;20136;-73
2022/04/12 09:42:50;;;;;;;3.30;2.72;;;;;;;12.69;28.86;101329.59;4988222;28;20048;-72
2022/04/12 09:45:23;;;;;;;5.70;2.40;;;;;;;12.45;28.43;101324.44;4990128;28;20082;-72
2022/04/12 09:47:52;;;;;;;6.32;2.97;;;;;;;12.57;28.31;101324.84;4975718;28;20902;-72
2022/04/12 09:50:35;;;;;;;6.63;2.88;;;;;;;12.62;27.79;101331.59;4992430;28;20038;-74
2022/04/12 09:53:03;;;;;;;5.32;2.70;;;;;;;13.09;27.58;101323.53;4989287;28;20045;-72
2022/04/12 09:55:37;;;;;;;6.25;2.90;;;;;;;12.93;27.91;101314.59;4990784;28;20038;-72
2022/04/12 09:58:05;;;;;;;6.93;2.88;;;;;;;13.08;28.21;101316.56;4981464;28;20057;-72
2022/04/12 10:00:31;;;;;;;7.82;3.28;;;;;;;12.46;28.01;101318.28;4992057;28;20045;-72
2022/04/12 10:03:02;;;;;;;4.97;2.72;;;;;;;12.00;29.47;101308.78;4985757;28;20076;-73
2022/04/12 10:05:28;;;;;;;7.10;2.85;;;;;;;12.58;28.72;101298.59;4969209;28;20033;-72
2022/04/12 10:07:58;;;;;;;5.57;3.10;;;;;;;12.26;29.09;101303.34;4984162;28;20045;-72
2022/04/12 10:10:27;;;;;;;3.38;2.30;;;;;;;12.37;29.23;101291.59;4984963;28;20653;-71
2022/04/12 10:12:54;;;;;;;5.15;2.70;;;;;;;12.71;28.94;101283.19;4972541;28;20593;-72
2022/04/12 10:15:21;;;;;;;6.85;3.00;;;;;;;12.60;28.23;101288.00;4972952;28;20051;-72
2022/04/12 10:17:49;;;;;;;4.40;2.70;;;;;;;12.44;28.92;101279.94;4973605;28;20250;-72
2022/04/12 10:20:16;;;;;;;4.63;2.92;;;;;;;12.73;29.05;101272.66;4983614;28;20030;-72
2022/04/12 10:22:44;;;;;;;5.10;3.00;;;;;;;13.60;28.58;101268.78;4976850;28;20415;-72
2022/04/12 10:25:11;;;;;;;5.25;2.72;;;;;;;13.67;27.79;101258.84;4973843;28;20127;-74
2022/04/12 10:27:37;;;;;;;5.03;3.00;;;;;;;13.21;28.43;101253.06;4979610;28;20045;-71
2022/04/12 10:30:15;;;;;;;5.80;3.13;;;;;;;12.92;28.63;101234.22;4989735;28;20406;-72
2022/04/12 10:33:01;;;;;;;5.75;3.28;;;;;;;12.90;28.92;101250.00;5009010;28;20525;-71
2022/04/12 10:35:28;;;;;;;4.95;2.80;;;;;;;13.55;28.64;101249.72;4991849;28;20034;-71
2022/04/12 10:37:59;;;;;;;8.98;3.15;;;;;;;13.48;27.98;101241.28;5021309;28;20041;-72
2022/04/12 10:40:26;;;;;;;7.05;4.03;;;;;;;13.73;27.83;101234.91;5009138;28;20469;-72
2022/04/12 10:42:55;;;;;;;6.82;2.92;;;;;;;14.21;27.61;101235.22;5000268;28;20124;-73
2022/04/12 10:45:29;;;;;;;7.00;3.40;;;;;;;14.27;27.98;101241.03;4999937;28;20041;-71
2022/04/12 10:48:02;;;;;;;8.30;3.38;;;;;;;13.52;28.20;101253.34;4984020;28;20147;-71
2022/04/12 10:50:40;;;;;;;6.32;2.75;;;;;;;13.93;27.97;101247.09;5002423;28;20120;-72
2022/04/12 10:53:05;;;;;;;6.53;2.83;;;;;;;14.45;27.78;101241.06;4985805;28;20034;-72
2022/04/12 10:55:43;;;;;;;4.80;2.78;;;;;;;15.14;26.75;101248.84;4989141;28;20049;-72
2022/04/12 10:58:31;;;;;;;7.20;2.97;;;;;;;14.84;25.85;101245.22;4963274;28;20042;-73
2022/04/12 11:00:59;;;;;;;4.40;2.40;;;;;;;14.49;26.50;101242.63;4989750;28;20042;-71
2022/04/12 11:03:45;;;;;;;8.07;3.20;;;;;;;15.24;26.20;101248.38;4982188;28;20045;-72
2022/04/12 11:06:22;;;;;;;5.30;2.88;;;;;;;15.30;26.28;101241.00;4995751;28;20536;-71
2022/04/12 11:08:51;;;;;;;6.55;3.42;;;;;;;15.38;26.04;101244.06;5006653;28;20049;-72
2022/04/12 11:11:44;;;;;;;6.65;3.75;;;;;;;14.60;25.36;101252.59;4995146;28;20061;-73
2022/04/12 11:14:33;;;;;;;7.90;3.88;;;;;;;15.17;25.98;101245.22;4994383;28;20495;-72
2022/04/12 11:17:09;;;;;;;6.65;3.33;;;;;;;15.58;24.30;101242.13;4984908;28;20036;-71
2022/04/12 11:19:48;;;;;;;10.45;3.58;;;;;;;14.90;25.73;101240.50;4997152;28;20030;-72
2022/04/12 11:22:15;;;;;;;6.90;3.47;;;;;;;14.99;25.67;101239.13;4967698;28;20811;-73
2022/04/12 11:24:41;;;;;;;6.30;3.38;;;;;;;15.49;25.27;101243.50;5000709;28;20546;-71
2022/04/12 11:27:11;;;;;;;6.22;4.13;;;;;;;14.57;25.51;101250.97;5011164;28;20045;-71
2022/04/12 11:29:41;;;;;;;6.95;3.50;;;;;;;14.95;25.61;101230.56;5010678;28;20042;-71
2022/04/12 11:32:09;;;;;;;11.20;4.53;;;;;;;15.83;25.43;101231.06;5012738;28;20029;-71
2022/04/12 11:34:37;;;;;;;11.27;3.58;;;;;;;15.46;25.68;101222.59;5016564;28;20177;-71
2022/04/12 11:37:08;;;;;;;8.77;3.80;;;;;;;15.56;25.41;101231.69;4984436;28;20676;-72